Time;durP1;ratioP1;P1;durP2;ratioP2;P2;SDS_P1;SDS_P2;PMS_P1;PMS_P2;Temp;Humidity;BMP_temperature;BMP_pressure;BME280_temperature;BME280_humidity;BME280_pressure;Samples;Min_cycle;Max_cycle;Signal;HPM_P1;HPM_P2
2022/01/23 00:00:40;;;;;;;39.37;15.90;;;;;;;4.24;99.34;100284.19;5079202;28;20254;-66
2022/01/23 00:03:13;;;;;;;44.45;18.83;;;;;;;4.21;99.38;100289.31;5072446;28;20010;-66
2022/01/23 00:05:39;;;;;;;37.50;15.82;;;;;;;4.21;99.12;100279.75;5074690;28;20024;-66
2022/01/23 00:08:05;;;;;;;38.85;16.42;;;;;;;4.17;98.75;100277.88;5069942;28;20028;-66
2022/01/23 00:10:32;;;;;;;43.70;16.42;;;;;;;4.24;99.28;100277.22;5075370;28;20021;-66
2022/01/23 00:13:10;;;;;;;38.65;15.20;;;;;;;4.26;99.17;100275.56;5078451;28;20328;-66
2022/01/23 00:18:20;;;;;;;34.45;15.15;;;;;;;4.19;99.10;100273.63;5070105;28;20343;-66
2022/01/23 00:20:47;;;;;;;39.50;15.75;;;;;;;4.15;99.01;100279.53;5078920;28;20020;-66
2022/01/23 00:23:26;;;;;;;47.25;17.55;;;;;;;4.16;99.39;100281.34;5073452;28;20245;-66
2022/01/23 00:31:21;;;;;;;50.95;16.27;;;;;;;4.16;99.31;100278.72;5072664;28;20367;-66
2022/01/23 00:33:46;;;;;;;37.38;14.73;;;;;;;4.18;99.14;100279.66;5074243;28;20036;-66
2022/01/23 00:36:13;;;;;;;36.25;14.45;;;;;;;4.10;99.26;100281.13;5073259;28;20088;-66
2022/01/23 00:38:38;;;;;;;31.05;12.90;;;;;;;4.14;98.61;100269.97;5074605;28;20320;-66
2022/01/23 00:41:04;;;;;;;36.33;15.60;;;;;;;4.21;98.59;100278.88;5075669;28;20060;-66
2022/01/23 00:43:31;;;;;;;34.67;15.80;;;;;;;4.09;98.83;100270.66;5073489;28;20071;-66
2022/01/23 00:46:58;;;;;;;29.02;14.02;;;;;;;4.01;99.16;100275.63;5073600;28;20320;-66
2022/01/23 00:51:26;;;;;;;30.02;13.80;;;;;;;4.06;99.92;100279.28;5075475;28;20056;-66
2022/01/23 00:53:52;;;;;;;32.90;13.50;;;;;;;3.94;99.08;100277.97;5075295;28;20222;-66
2022/01/23 00:56:18;;;;;;;34.40;15.50;;;;;;;3.93;99.64;100274.47;5071922;28;20044;-66
2022/01/23 00:58:44;;;;;;;32.95;13.90;;;;;;;3.96;99.82;100271.97;5077223;28;20189;-66
2022/01/23 01:01:11;;;;;;;32.42;13.23;;;;;;;3.97;99.55;100273.75;5074995;28;20050;-66
2022/01/23 01:03:36;;;;;;;36.95;15.45;;;;;;;4.01;99.86;100274.72;5072764;28;20035;-66
2022/01/23 01:06:02;;;;;;;32.90;15.75;;;;;;;3.95;99.45;100262.41;5079074;28;20024;-66
2022/01/23 01:08:27;;;;;;;32.08;13.95;;;;;;;3.99;99.45;100261.66;5071677;28;20021;-66
2022/01/23 01:11:09;;;;;;;35.72;13.27;;;;;;;4.00;99.19;100258.22;5072350;28;20028;-66
2022/01/23 01:35:21;;;;;;;38.13;13.13;;;;;;;3.98;98.89;100246.88;5075868;28;20025;-66
2022/01/23 01:37:47;;;;;;;32.38;13.68;;;;;;;3.94;98.93;100252.81;5079300;28;20239;-66
2022/01/23 01:40:12;;;;;;;31.35;14.25;;;;;;;3.92;99.37;100254.47;5071721;28;20024;-66
2022/01/23 01:42:38;;;;;;;40.97;13.10;;;;;;;3.99;99.26;100259.03;5079025;28;20021;-66
2022/01/23 01:45:04;;;;;;;30.33;13.35;;;;;;;4.01;99.61;100257.38;5077337;28;20047;-66
2022/01/23 01:47:29;;;;;;;34.78;13.98;;;;;;;4.01;98.90;100260.00;5076437;28;20021;-66
2022/01/23 01:49:55;;;;;;;35.00;13.43;;;;;;;3.98;98.84;100254.69;5072290;28;20024;-66
2022/01/23 01:52:20;;;;;;;43.47;14.20;;;;;;;3.94;99.58;100250.22;5069244;28;20017;-66
2022/01/23 01:54:47;;;;;;;40.17;14.50;;;;;;;3.97;99.08;100258.13;5072281;28;20040;-66
2022/01/23 01:57:14;;;;;;;34.78;13.07;;;;;;;4.00;98.96;100253.03;5073480;28;20364;-66
2022/01/23 02:10:06;;;;;;;36.95;13.63;;;;;;;3.97;99.73;100246.81;5072042;28;20051;-66
2022/01/23 02:13:36;;;;;;;37.58;15.10;;;;;;;3.97;99.27;100247.72;5070956;28;20051;-66
2022/01/23 02:56:03;;;;;;;33.00;13.95;;;;;;;3.93;98.66;100205.88;5069966;28;20024;-66
2022/01/23 02:58:47;;;;;;;26.75;12.20;;;;;;;3.85;99.45;100216.06;5071538;28;20344;-66
2022/01/23 03:01:18;;;;;;;36.33;15.23;;;;;;;3.75;99.23;100218.31;5067737;28;20020;-66
2022/01/23 03:03:47;;;;;;;36.65;15.77;;;;;;;3.72;99.95;100213.88;5066889;28;20024;-66
2022/01/23 03:28:04;;;;;;;38.10;14.52;;;;;;;3.87;99.34;100240.44;5074156;28;20021;-66
2022/01/23 03:30:25;;;;;;;30.55;14.52;;;;;;;3.82;99.14;100234.19;5070404;28;20025;-66
2022/01/23 03:32:52;;;;;;;29.33;11.57;;;;;;;3.84;99.25;100237.72;5073241;28;20091;-66
2022/01/23 03:35:19;;;;;;;32.55;12.30;;;;;;;3.88;99.54;100241.31;5071307;28;20016;-66
2022/01/23 03:37:46;;;;;;;32.28;13.30;;;;;;;3.85;99.24;100236.88;5078009;28;20242;-66
2022/01/23 03:40:12;;;;;;;32.80;12.35;;;;;;;3.85;99.88;100257.72;5081929;28;20028;-66
2022/01/23 03:42:41;;;;;;;32.70;14.20;;;;;;;3.75;99.21;100249.56;5071959;28;20032;-66
2022/01/23 03:45:39;;;;;;;34.17;13.98;;;;;;;3.76;99.86;100243.50;5069400;28;20033;-66
2022/01/23 03:50:47;;;;;;;26.75;11.93;;;;;;;3.67;99.92;100251.91;5067863;28;20254;-66
2022/01/23 03:53:13;;;;;;;36.28;12.73;;;;;;;3.65;99.99;100253.59;5080409;28;20220;-66
2022/01/23 03:55:38;;;;;;;31.30;13.48;;;;;;;3.73;100.00;100253.81;5074307;28;20038;-66
2022/01/23 03:58:04;;;;;;;33.42;13.25;;;;;;;3.79;100.00;100254.91;5074927;28;20200;-66
2022/01/23 04:00:30;;;;;;;32.05;12.63;;;;;;;3.81;99.49;100255.88;5081110;28;20020;-66
2022/01/23 04:02:56;;;;;;;31.35;13.05;;;;;;;3.80;99.79;100254.06;5074542;28;20017;-66
2022/01/23 04:05:22;;;;;;;32.17;13.07;;;;;;;3.80;99.71;100248.88;5071348;28;20027;-66
2022/01/23 04:07:47;;;;;;;32.05;13.82;;;;;;;3.75;99.40;100250.44;5070617;28;20213;-66
2022/01/23 04:10:15;;;;;;;31.30;13.93;;;;;;;3.74;99.74;100248.66;5078748;28;20067;-66
2022/01/23 04:34:10;;;;;;;33.13;13.10;;;;;;;3.71;100.00;100227.75;5074048;28;20031;-66
2022/01/23 05:01:19;;;;;;;33.85;12.13;;;;;;;3.62;100.00;100243.06;5075225;28;20255;-66
2022/01/23 05:06:24;;;;;;;31.05;14.23;;;;;;;3.58;100.00;100248.97;5079234;28;20024;-66
2022/01/23 05:08:51;;;;;;;31.13;14.18;;;;;;;3.55;100.00;100246.28;5075428;28;20021;-66
2022/01/23 05:11:17;;;;;;;28.35;13.48;;;;;;;3.58;100.00;100241.16;5077705;28;20239;-66
2022/01/23 05:13:43;;;;;;;29.33;13.40;;;;;;;3.59;100.00;100237.75;5077212;28;20267;-66
2022/01/23 05:16:10;;;;;;;37.60;13.85;;;;;;;3.52;100.00;100241.00;5074355;28;20024;-66
2022/01/23 05:18:36;;;;;;;31.23;14.07;;;;;;;3.63;100.00;100234.41;5075031;28;20023;-66
2022/01/23 05:21:38;;;;;;;37.47;14.75;;;;;;;3.62;100.00;100232.66;5080109;28;20032;-66
2022/01/23 05:23:49;;;;;;;27.88;12.38;;;;;;;3.72;100.00;100234.72;5073808;28;20021;-66
2022/01/23 05:26:15;;;;;;;32.95;14.32;;;;;;;3.65;100.00;100237.97;5072385;28;20062;-66
2022/01/23 05:28:40;;;;;;;27.05;12.85;;;;;;;3.72;100.00;100234.72;5074480;28;20297;-66
2022/01/23 05:31:06;;;;;;;49.85;14.70;;;;;;;3.59;100.00;100232.56;5076819;28;20016;-66
2022/01/23 05:33:31;;;;;;;36.15;13.18;;;;;;;3.63;100.00;100234.41;5075154;28;20374;-66
2022/01/23 05:35:57;;;;;;;35.08;13.70;;;;;;;3.62;100.00;100247.38;5078468;28;20419;-66
2022/01/23 05:38:22;;;;;;;30.48;12.57;;;;;;;3.60;100.00;100239.50;5080195;28;20019;-66
2022/01/23 05:40:55;;;;;;;35.47;13.65;;;;;;;3.62;100.00;100248.28;5076145;28;20037;-66
2022/01/23 05:43:21;;;;;;;27.63;12.00;;;;;;;3.68;100.00;100253.69;5072300;28;20020;-66
2022/01/23 05:45:47;;;;;;;26.92;12.88;;;;;;;3.54;100.00;100249.72;5075884;28;20024;-66
2022/01/23 05:48:12;;;;;;;35.33;13.65;;;;;;;3.58;100.00;100251.59;5072771;28;20032;-66
2022/01/23 05:50:37;;;;;;;30.98;13.00;;;;;;;3.53;100.00;100253.16;5074595;28;20031;-66
2022/01/23 05:53:03;;;;;;;30.25;11.85;;;;;;;3.44;100.00;100252.84;5073641;28;20045;-66
2022/01/23 05:55:28;;;;;;;35.55;14.05;;;;;;;3.57;100.00;100259.34;5073588;28;20021;-66
2022/01/23 05:57:54;;;;;;;31.98;13.52;;;;;;;3.46;100.00;100251.19;5072947;28;20294;-66
2022/01/23 06:00:19;;;;;;;30.60;13.68;;;;;;;3.60;100.00;100259.44;5068717;28;20025;-66
2022/01/23 06:02:45;;;;;;;26.27;11.63;;;;;;;3.65;100.00;100260.50;5067249;28;20039;-66
2022/01/23 06:05:10;;;;;;;40.17;14.40;;;;;;;3.57;100.00;100260.25;5073820;28;20025;-66
2022/01/23 06:07:36;;;;;;;31.38;13.25;;;;;;;3.54;100.00;100260.13;5077640;28;20021;-66
2022/01/23 06:10:03;;;;;;;28.27;12.27;;;;;;;3.62;100.00;100250.88;5079844;28;20029;-66
2022/01/23 06:12:28;;;;;;;38.45;11.88;;;;;;;3.66;100.00;100244.03;5068999;28;20037;-66
2022/01/23 06:14:54;;;;;;;30.27;14.13;;;;;;;3.49;100.00;100259.09;5068041;28;20079;-66
2022/01/23 06:17:19;;;;;;;32.90;14.75;;;;;;;3.48;100.00;100249.50;5071055;28;20024;-66
2022/01/23 06:19:45;;;;;;;33.03;11.98;;;;;;;3.61;100.00;100251.69;5066983;28;20088;-66
2022/01/23 06:22:11;;;;;;;26.67;12.73;;;;;;;3.65;100.00;100256.19;5070977;28;20029;-66
2022/01/23 06:24:44;;;;;;;26.10;12.57;;;;;;;3.54;100.00;100267.94;5067373;28;20059;-66
2022/01/23 06:27:10;;;;;;;32.95;12.52;;;;;;;3.49;100.00;100272.13;5071401;28;20084;-66
2022/01/23 06:29:36;;;;;;;32.25;13.65;;;;;;;3.55;100.00;100269.69;5070671;28;20078;-66
2022/01/23 06:32:02;;;;;;;28.45;12.05;;;;;;;3.54;100.00;100269.69;5070725;28;20063;-66
2022/01/23 06:34:29;;;;;;;29.27;11.40;;;;;;;3.60;100.00;100286.38;5075986;28;20013;-66
2022/01/23 06:36:55;;;;;;;36.53;14.40;;;;;;;3.58;100.00;100293.25;5068812;28;20021;-66
2022/01/23 06:39:22;;;;;;;34.03;13.93;;;;;;;3.62;100.00;100289.94;5074422;28;20226;-66
2022/01/23 06:41:48;;;;;;;32.55;13.68;;;;;;;3.54;100.00;100293.13;5071772;28;20128;-66
2022/01/23 06:44:14;;;;;;;30.88;12.27;;;;;;;3.59;100.00;100287.22;5073814;28;20025;-66
2022/01/23 06:46:40;;;;;;;31.55;12.68;;;;;;;3.48;100.00;100291.16;5073875;28;20013;-66
2022/01/23 06:49:06;;;;;;;40.35;16.05;;;;;;;3.54;100.00;100291.38;5076303;28;20023;-66
2022/01/23 06:51:32;;;;;;;33.15;14.00;;;;;;;3.53;100.00;100289.63;5071311;28;20036;-66
2022/01/23 06:53:57;;;;;;;33.58;13.75;;;;;;;3.54;100.00;100299.19;5075551;28;20016;-66
2022/01/23 06:56:23;;;;;;;30.02;11.43;;;;;;;3.60;100.00;100296.78;5074903;28;20067;-66
2022/01/23 06:58:48;;;;;;;30.60;13.52;;;;;;;3.56;100.00;100294.94;5074081;28;20197;-66
2022/01/23 07:01:15;;;;;;;43.42;12.93;;;;;;;3.55;100.00;100298.34;5064900;28;20082;-66
2022/01/23 07:03:41;;;;;;;27.30;13.15;;;;;;;3.62;100.00;100305.56;5075385;28;20020;-66
2022/01/23 07:06:06;;;;;;;39.22;15.45;;;;;;;3.62;100.00;100300.34;5078159;28;20047;-66
2022/01/23 07:08:32;;;;;;;35.63;13.77;;;;;;;3.67;100.00;100303.97;5070484;28;20027;-66
2022/01/23 07:10:58;;;;;;;33.95;14.52;;;;;;;3.56;100.00;100313.16;5073034;28;20024;-66
2022/01/23 07:13:24;;;;;;;35.85;14.20;;;;;;;3.57;100.00;100322.72;5072209;28;20047;-66
2022/01/23 07:15:50;;;;;;;40.78;16.05;;;;;;;3.62;100.00;100321.19;5075155;28;20410;-66
2022/01/23 07:18:16;;;;;;;36.30;13.88;;;;;;;3.67;100.00;100319.59;5072036;28;20031;-66
2022/01/23 07:20:42;;;;;;;29.98;13.75;;;;;;;3.65;100.00;100321.28;5073542;28;20079;-66
2022/01/23 07:23:08;;;;;;;33.92;13.98;;;;;;;3.71;100.00;100320.59;5080558;28;20025;-66
2022/01/23 07:25:33;;;;;;;35.50;14.60;;;;;;;3.63;100.00;100317.72;5079048;28;20022;-66
2022/01/23 07:28:00;;;;;;;30.83;12.82;;;;;;;3.58;100.00;100329.69;5072636;28;20029;-66
2022/01/23 07:30:51;;;;;;;32.28;14.30;;;;;;;3.56;100.00;100320.97;5075247;28;20216;-67
2022/01/23 07:33:12;;;;;;;29.08;12.27;;;;;;;3.52;100.00;100329.50;5079251;28;20371;-67
2022/01/23 07:35:37;;;;;;;34.45;13.23;;;;;;;3.59;100.00;100339.28;5074635;28;20201;-67
2022/01/23 07:38:03;;;;;;;39.10;13.80;;;;;;;3.56;100.00;100330.47;5071112;28;20343;-67
2022/01/23 07:40:28;;;;;;;29.85;13.60;;;;;;;3.58;100.00;100329.69;5077584;28;20025;-67
2022/01/23 07:42:54;;;;;;;27.58;13.85;;;;;;;3.60;100.00;100328.03;5072090;28;20088;-67
2022/01/23 07:45:19;;;;;;;26.17;12.60;;;;;;;3.68;100.00;100329.19;5074084;28;20024;-67
2022/01/23 07:47:45;;;;;;;28.90;13.00;;;;;;;3.63;100.00;100328.16;5073610;28;20021;-67
2022/01/23 07:50:11;;;;;;;37.88;13.32;;;;;;;3.65;100.00;100331.69;5070191;28;20066;-67
2022/01/23 07:52:38;;;;;;;27.58;12.50;;;;;;;3.74;100.00;100326.78;5073211;28;20028;-67
2022/01/23 07:55:06;;;;;;;30.63;13.70;;;;;;;3.72;100.00;100333.69;5071647;28;20033;-67
2022/01/23 07:57:33;;;;;;;35.45;13.75;;;;;;;3.69;100.00;100338.78;5079736;28;20017;-67
2022/01/23 07:59:59;;;;;;;29.33;14.07;;;;;;;3.68;100.00;100333.50;5068654;28;20103;-67
2022/01/23 08:02:25;;;;;;;31.42;13.25;;;;;;;3.67;100.00;100340.44;5078568;28;20031;-67
2022/01/23 08:04:50;;;;;;;28.33;11.95;;;;;;;3.70;100.00;100340.53;5077742;28;20012;-67
2022/01/23 08:09:55;;;;;;;33.70;13.30;;;;;;;3.64;100.00;100358.53;5070809;28;20032;-68
2022/01/23 08:12:21;;;;;;;28.17;13.20;;;;;;;3.61;100.00;100350.63;5065119;28;20055;-67
2022/01/23 08:14:47;;;;;;;39.20;15.85;;;;;;;3.61;100.00;100345.41;5074848;28;20339;-67
2022/01/23 08:17:13;;;;;;;35.80;14.98;;;;;;;3.68;100.00;100352.63;5067085;28;20024;-67
2022/01/23 08:19:38;;;;;;;44.97;18.65;;;;;;;3.73;100.00;100345.84;5076567;28;20024;-67
2022/01/23 08:22:04;;;;;;;34.28;14.82;;;;;;;3.79;100.00;100346.06;5074771;28;20021;-67
2022/01/23 08:24:29;;;;;;;36.70;14.00;;;;;;;3.85;100.00;100356.69;5074473;28;20016;-67
2022/01/23 08:26:55;;;;;;;36.75;17.10;;;;;;;3.80;100.00;100357.38;5078674;28;20189;-67
2022/01/23 08:29:20;;;;;;;46.67;18.17;;;;;;;3.81;100.00;100360.03;5079479;28;20057;-67
2022/01/23 08:31:47;;;;;;;34.97;16.73;;;;;;;3.93;100.00;100357.81;5077293;28;20044;-67
2022/01/23 08:34:13;;;;;;;41.95;15.80;;;;;;;4.02;100.00;100370.31;5074336;28;20032;-67
2022/01/23 08:36:39;;;;;;;47.72;17.92;;;;;;;3.99;100.00;100371.06;5074333;28;20033;-67
2022/01/23 08:39:05;;;;;;;39.42;16.25;;;;;;;3.95;100.00;100369.19;5071762;28;20013;-67
2022/01/23 08:44:16;;;;;;;41.05;17.15;;;;;;;4.09;100.00;100362.72;5076803;28;20027;-67
2022/01/23 08:46:41;;;;;;;42.60;15.18;;;;;;;4.11;100.00;100370.59;5076453;28;20369;-67
2022/01/23 08:49:07;;;;;;;45.10;16.60;;;;;;;4.20;100.00;100369.19;5073961;28;20020;-67
2022/01/23 08:51:32;;;;;;;40.67;15.18;;;;;;;4.29;100.00;100372.13;5079848;28;20095;-67
2022/01/23 08:53:59;;;;;;;31.52;14.80;;;;;;;4.24;100.00;100363.25;5073725;28;20017;-67
2022/01/23 08:56:25;;;;;;;37.33;15.52;;;;;;;4.35;100.00;100367.09;5068032;28;20029;-67
2022/01/23 08:58:51;;;;;;;36.22;14.77;;;;;;;4.45;100.00;100363.94;5079973;28;20032;-67
2022/01/23 09:01:16;;;;;;;38.58;15.98;;;;;;;4.47;100.00;100367.47;5082330;28;20016;-67
2022/01/23 09:03:42;;;;;;;36.50;14.85;;;;;;;4.46;99.42;100364.81;5070862;28;20017;-67
2022/01/23 09:06:08;;;;;;;38.85;14.98;;;;;;;4.44;99.49;100359.56;5071897;28;20062;-67
2022/01/23 09:08:37;;;;;;;36.22;15.13;;;;;;;4.50;99.30;100362.34;5074303;28;20009;-67
2022/01/23 09:11:08;;;;;;;34.88;14.55;;;;;;;4.57;98.72;100362.56;5072170;28;20027;-67
2022/01/23 09:16:12;;;;;;;40.10;15.10;;;;;;;4.62;97.51;100355.78;5073890;28;20013;-67
2022/01/23 09:18:37;;;;;;;38.90;17.45;;;;;;;4.59;98.15;100358.28;5072877;28;20325;-67
2022/01/23 09:21:03;;;;;;;47.08;19.98;;;;;;;4.59;98.59;100359.19;5074343;28;20020;-67
2022/01/23 09:23:30;;;;;;;37.13;16.52;;;;;;;4.69;98.56;100362.94;5077801;28;20223;-67
2022/01/23 09:25:57;;;;;;;36.88;15.93;;;;;;;4.71;98.31;100362.16;5073923;28;20374;-67
2022/01/23 09:28:30;;;;;;;41.17;17.13;;;;;;;4.78;98.85;100364.09;5073015;28;20040;-67
2022/01/23 09:30:57;;;;;;;44.00;17.25;;;;;;;4.88;98.77;100355.75;5072872;28;20093;-67
2022/01/23 09:33:22;;;;;;;44.45;16.75;;;;;;;4.83;98.07;100362.53;5072612;28;20021;-67
2022/01/23 09:35:48;;;;;;;43.90;19.15;;;;;;;4.81;97.67;100356.38;5071755;28;20020;-67
2022/01/23 09:38:13;;;;;;;48.72;17.90;;;;;;;4.91;97.78;100368.88;5073305;28;20025;-67
2022/01/23 09:40:42;;;;;;;48.33;18.38;;;;;;;4.91;97.46;100360.16;5072646;28;20056;-67
2022/01/23 09:43:19;;;;;;;41.97;17.58;;;;;;;5.01;96.90;100370.03;5071306;28;20386;-67
2022/01/23 09:45:46;;;;;;;37.10;17.00;;;;;;;5.06;96.58;100371.94;5071973;28;20062;-67
2022/01/23 09:48:13;;;;;;;50.50;18.20;;;;;;;5.14;95.88;100374.78;5074469;28;20027;-67
2022/01/23 09:50:39;;;;;;;35.58;14.63;;;;;;;5.17;95.49;100364.44;5074380;28;20017;-67
2022/01/23 09:53:05;;;;;;;43.00;16.55;;;;;;;5.21;95.26;100376.72;5073042;28;20021;-67
2022/01/23 09:55:33;;;;;;;34.75;15.40;;;;;;;5.30;94.90;100366.56;5074762;28;20267;-67
2022/01/23 09:58:00;;;;;;;45.67;17.60;;;;;;;5.42;94.07;100361.69;5074547;28;20035;-67
2022/01/23 10:00:28;;;;;;;34.30;13.57;;;;;;;5.44;93.42;100365.25;5077620;28;20040;-67
2022/01/23 10:02:55;;;;;;;31.77;13.48;;;;;;;5.45;94.26;100362.69;5074073;28;20079;-67
2022/01/23 10:05:22;;;;;;;36.55;15.05;;;;;;;5.57;93.88;100351.69;5072468;28;20217;-67
2022/01/23 10:07:48;;;;;;;36.80;14.50;;;;;;;5.59;92.86;100352.59;5069846;28;20028;-67
2022/01/23 10:10:22;;;;;;;39.78;16.00;;;;;;;5.66;92.84;100354.56;5074659;28;20027;-67
2022/01/23 10:12:56;;;;;;;27.05;11.73;;;;;;;5.59;91.09;100355.19;5072801;28;20280;-67
2022/01/23 10:15:26;;;;;;;32.22;13.23;;;;;;;5.63;90.75;100341.41;5071767;28;20048;-67
2022/01/23 10:17:55;;;;;;;36.20;14.43;;;;;;;5.63;91.24;100342.28;5073035;28;20021;-67
2022/01/23 10:20:21;;;;;;;38.38;15.48;;;;;;;5.78;91.03;100337.47;5073315;28;20037;-67
2022/01/23 10:22:50;;;;;;;26.20;11.57;;;;;;;5.87;90.35;100340.34;5069576;28;20025;-67
2022/01/23 10:25:18;;;;;;;25.13;11.32;;;;;;;5.91;89.21;100330.84;5068020;28;20355;-67
2022/01/23 10:28:02;;;;;;;27.27;11.25;;;;;;;6.03;89.15;100336.41;5074292;28;20021;-67
2022/01/23 10:30:34;;;;;;;28.35;12.20;;;;;;;5.81;89.00;100337.59;5070074;28;20208;-67
2022/01/23 10:33:04;;;;;;;28.38;12.05;;;;;;;5.71;88.11;100334.66;5071526;28;20030;-67
2022/01/23 10:35:32;;;;;;;21.10;9.23;;;;;;;5.74;87.98;100330.41;5072767;28;20025;-67
2022/01/23 10:38:05;;;;;;;24.17;10.68;;;;;;;5.85;88.67;100336.81;5075113;28;20031;-67
2022/01/23 10:40:35;;;;;;;18.25;9.07;;;;;;;5.94;87.17;100328.31;5071257;28;20185;-67
2022/01/23 10:48:35;;;;;;;18.85;8.00;;;;;;;5.92;86.15;100324.81;5078199;28;20438;-67
2022/01/23 10:51:16;;;;;;;20.83;9.52;;;;;;;5.88;87.66;100323.81;5076241;28;20059;-67
2022/01/23 10:54:04;;;;;;;24.58;9.98;;;;;;;5.95;86.45;100322.28;5076855;28;20025;-67
2022/01/23 10:56:33;;;;;;;22.85;9.32;;;;;;;6.01;86.03;100325.91;5076805;28;20047;-67
2022/01/23 10:59:10;;;;;;;18.50;8.48;;;;;;;6.03;88.14;100323.34;5080153;28;20024;-67
2022/01/23 11:01:36;;;;;;;18.40;7.95;;;;;;;6.08;85.57;100324.34;5076045;28;20051;-67
2022/01/23 11:04:11;;;;;;;19.45;9.15;;;;;;;6.17;84.16;100320.22;5071249;28;20021;-67
2022/01/23 11:06:57;;;;;;;16.60;8.13;;;;;;;6.02;86.12;100326.81;5077108;28;20044;-67
2022/01/23 11:09:41;;;;;;;21.20;8.77;;;;;;;6.03;85.38;100324.22;5075854;28;20024;-67
2022/01/23 11:12:15;;;;;;;16.98;8.52;;;;;;;6.01;85.40;100325.91;5073787;28;20071;-67
2022/01/23 11:17:26;;;;;;;21.27;8.50;;;;;;;6.07;84.90;100325.16;5075851;28;20031;-67
2022/01/23 11:20:00;;;;;;;24.45;8.50;;;;;;;6.10;86.31;100325.25;5076998;28;20016;-67
2022/01/23 11:22:36;;;;;;;24.65;9.30;;;;;;;6.07;84.93;100320.84;5075536;28;20239;-67
2022/01/23 11:25:11;;;;;;;23.67;8.60;;;;;;;6.19;85.05;100315.03;5076889;28;20051;-67
2022/01/23 11:27:40;;;;;;;22.92;9.10;;;;;;;6.15;84.75;100307.97;5079262;28;20025;-67
2022/01/23 11:30:10;;;;;;;19.77;8.15;;;;;;;6.20;84.55;100311.56;5073243;28;20208;-67
2022/01/23 11:32:39;;;;;;;21.60;10.18;;;;;;;6.31;84.35;100304.88;5077991;28;20105;-67
2022/01/23 11:35:15;;;;;;;22.42;9.55;;;;;;;6.29;83.54;100303.94;5073462;28;20048;-67
2022/01/23 11:37:49;;;;;;;20.30;9.10;;;;;;;6.32;83.11;100309.25;5076268;28;20092;-68
2022/01/23 11:54:02;;;;;;;20.58;8.88;;;;;;;6.51;83.54;100306.22;5075365;28;20020;-67
2022/01/23 11:56:33;;;;;;;23.02;8.63;;;;;;;6.41;84.67;100296.41;5075172;28;20032;-67
2022/01/23 11:59:12;;;;;;;21.75;9.80;;;;;;;6.54;82.40;100298.44;5073236;28;20208;-67
2022/01/23 12:01:40;;;;;;;25.95;10.15;;;;;;;6.64;82.28;100295.19;5077466;28;20216;-67
2022/01/23 12:04:09;;;;;;;23.80;10.13;;;;;;;6.55;82.15;100293.25;5074147;28;20025;-67
2022/01/23 12:06:36;;;;;;;21.38;8.35;;;;;;;6.58;83.10;100289.81;5077010;28;20043;-67
2022/01/23 12:09:19;;;;;;;19.20;8.50;;;;;;;6.58;83.59;100287.19;5077712;28;20083;-67
2022/01/23 12:12:07;;;;;;;;;;;;;;;6.64;83.23;100285.59;5075774;28;20095;-67
2022/01/23 12:17:13;;;;;;;;;;;;;;;6.67;83.30;100281.31;5075151;28;20024;-67
2022/01/23 12:19:54;;;;;;;20.27;9.00;;;;;;;6.79;82.32;100281.56;5071932;28;20205;-67
2022/01/23 12:22:30;;;;;;;21.43;8.63;;;;;;;6.75;80.98;100278.00;5075269;28;20335;-67
2022/01/23 12:24:58;;;;;;;23.17;9.40;;;;;;;6.74;80.85;100272.72;5074509;28;20029;-67
2022/01/23 12:27:27;;;;;;;21.70;8.38;;;;;;;6.77;81.45;100260.56;5073053;28;20294;-67
2022/01/23 12:30:10;;;;;;;18.27;9.18;;;;;;;6.77;81.63;100255.34;5075347;28;20020;-67
2022/01/23 12:32:36;;;;;;;21.35;8.77;;;;;;;6.65;82.74;100255.09;5081878;28;20039;-67
2022/01/23 12:35:05;;;;;;;20.33;9.73;;;;;;;6.61;83.31;100248.91;5071270;28;20311;-67
2022/01/23 12:37:55;;;;;;;20.45;9.45;;;;;;;6.63;82.07;100252.47;5082591;28;20020;-67
2022/01/23 12:40:33;;;;;;;23.63;9.50;;;;;;;6.52;81.81;100242.59;5079029;28;20041;-67
2022/01/23 12:43:17;;;;;;;25.33;9.68;;;;;;;6.66;82.47;100241.16;5075392;28;20212;-67
2022/01/23 12:45:55;;;;;;;19.42;8.60;;;;;;;6.68;81.57;100240.34;5075368;28;20106;-67
2022/01/23 12:48:27;;;;;;;24.17;9.10;;;;;;;6.72;82.41;100246.53;5077916;28;20048;-67
2022/01/23 12:51:00;;;;;;;21.73;8.73;;;;;;;6.72;82.26;100230.84;5075831;28;20101;-67
2022/01/23 12:53:54;;;;;;;25.80;9.98;;;;;;;6.78;81.61;100225.72;5073075;28;20029;-67
2022/01/23 12:56:34;;;;;;;19.35;8.38;;;;;;;6.76;80.97;100237.00;5073516;28;20053;-67
2022/01/23 12:59:09;;;;;;;21.65;9.90;;;;;;;6.81;80.75;100225.81;5077265;28;20016;-67
2022/01/23 13:01:38;;;;;;;24.42;10.38;;;;;;;6.75;80.51;100230.91;5074567;28;20032;-67
2022/01/23 13:04:08;;;;;;;30.98;10.05;;;;;;;6.70;80.33;100226.44;5074158;28;20016;-67
2022/01/23 13:06:35;;;;;;;16.80;8.23;;;;;;;6.82;79.87;100217.09;5072836;28;20040;-67
2022/01/23 13:09:29;;;;;;;18.23;7.90;;;;;;;6.74;78.75;100223.88;5070877;28;20307;-67
2022/01/23 13:31:43;;;;;;;24.92;8.40;;;;;;;6.44;76.11;100218.91;5071876;28;20247;-67
2022/01/23 13:34:27;;;;;;;20.17;8.52;;;;;;;6.53;75.91;100207.75;5070951;28;20023;-67
2022/01/23 13:36:58;;;;;;;13.52;6.07;;;;;;;6.44;75.11;100212.78;5081516;28;20099;-67
2022/01/23 13:39:49;;;;;;;16.33;7.05;;;;;;;6.40;75.30;100208.34;5083094;28;20028;-67
2022/01/23 13:42:45;;;;;;;20.80;8.68;;;;;;;6.38;76.25;100212.63;5072149;28;20024;-67
2022/01/23 13:51:29;;;;;;;;;;;;;;;6.22;77.18;100203.56;5053856;28;20033;-67
2022/01/23 14:00:24;;;;;;;20.90;8.00;;;;;;;6.21;77.85;100200.91;5071597;28;20027;-67
2022/01/23 14:02:34;;;;;;;19.55;7.15;;;;;;;6.30;77.41;100198.53;5069866;28;20024;-67
2022/01/23 14:05:08;;;;;;;21.02;8.18;;;;;;;6.19;78.19;100200.00;5069306;28;20043;-67
2022/01/23 14:07:35;;;;;;;21.38;8.43;;;;;;;6.19;77.94;100206.13;5071137;28;20024;-67
2022/01/23 14:10:16;;;;;;;21.92;7.90;;;;;;;6.17;78.28;100206.94;5073910;28;20035;-67
2022/01/23 14:12:42;;;;;;;25.35;8.60;;;;;;;6.30;77.77;100204.59;5073004;28;20240;-67
2022/01/23 14:15:13;;;;;;;18.48;7.88;;;;;;;6.33;77.79;100209.06;5075040;28;20031;-67
2022/01/23 14:17:39;;;;;;;17.98;7.68;;;;;;;6.20;78.48;100206.97;5074118;28;20024;-67
2022/01/23 14:20:12;;;;;;;18.50;8.23;;;;;;;6.00;77.47;100208.25;5067422;28;20051;-67
2022/01/23 14:22:41;;;;;;;22.30;9.18;;;;;;;6.06;77.57;100209.28;5073959;28;20028;-67
2022/01/23 14:25:11;;;;;;;25.45;10.00;;;;;;;6.09;78.19;100203.25;5072428;28;20088;-67
2022/01/23 14:27:39;;;;;;;26.17;11.52;;;;;;;6.08;78.45;100202.34;5070519;28;20029;-67
2022/01/23 14:30:08;;;;;;;17.17;8.02;;;;;;;6.32;76.80;100212.50;5070159;28;20193;-67
2022/01/23 14:32:48;;;;;;;14.25;6.90;;;;;;;6.17;76.27;100207.78;5073756;28;20025;-67
2022/01/23 14:35:26;;;;;;;24.55;7.32;;;;;;;6.09;76.02;100213.69;5073391;28;20031;-67
2022/01/23 14:37:52;;;;;;;15.25;6.57;;;;;;;6.04;75.35;100217.94;5076909;28;20312;-67
2022/01/23 14:40:27;;;;;;;14.27;6.45;;;;;;;6.10;75.85;100205.00;5077522;28;20024;-67
2022/01/23 14:43:09;;;;;;;17.08;7.45;;;;;;;6.17;75.00;100206.94;5079023;28;20181;-67
2022/01/23 14:45:40;;;;;;;13.82;6.13;;;;;;;6.15;74.79;100204.28;5078526;28;20036;-67
2022/01/23 14:48:06;;;;;;;18.58;7.38;;;;;;;6.04;75.78;100204.84;5073616;28;20247;-67
2022/01/23 14:50:36;;;;;;;16.38;7.00;;;;;;;6.15;75.14;100203.38;5082239;28;20024;-67
2022/01/23 14:53:09;;;;;;;17.27;7.75;;;;;;;6.06;75.41;100203.19;5074495;28;20016;-67
2022/01/23 14:55:36;;;;;;;19.60;8.43;;;;;;;6.02;75.96;100201.34;5072494;28;20317;-67
2022/01/23 14:58:03;;;;;;;14.98;7.72;;;;;;;6.01;75.86;100200.44;5072785;28;20024;-67
2022/01/23 15:00:33;;;;;;;21.50;8.02;;;;;;;6.07;75.29;100204.94;5072119;28;20027;-67
2022/01/23 15:03:02;;;;;;;14.30;6.40;;;;;;;6.02;76.12;100203.97;5075321;28;20034;-67
2022/01/23 15:05:32;;;;;;;16.40;6.72;;;;;;;6.04;76.31;100199.63;5067607;28;20021;-67
2022/01/23 15:07:59;;;;;;;22.42;8.98;;;;;;;6.08;76.25;100204.09;5072427;28;20024;-67